createdAt,value
2018-02-13T00:00:02.318Z,97843.13
2018-02-13T00:14:02.309Z,97850.63
2018-02-13T00:28:02.820Z,97852.72
2018-02-13T00:42:02.889Z,97844.76
2018-02-13T00:52:53.419Z,97841.97
2018-02-13T01:03:38.564Z,97828.39
2018-02-13T01:14:24.337Z,97834.16
2018-02-13T01:25:14.715Z,97830.79
2018-02-13T01:35:59.819Z,97829.88
2018-02-13T01:46:50.591Z,97823.53
2018-02-13T02:00:52.302Z,97818.21
2018-02-13T02:11:42.309Z,97813.93
2018-02-13T02:25:42.177Z,97809.62
2018-02-13T02:36:32.629Z,97804.97
2018-02-13T02:50:34.369Z,97808.28
2018-02-13T03:01:20.351Z,97794.32
2018-02-13T03:12:11.863Z,97787.36
2018-02-13T03:23:02.515Z,97784.98
2018-02-13T03:33:53.685Z,97786.23
2018-02-13T03:44:44.467Z,97776.05
2018-02-13T03:58:44.596Z,97764.59
2018-02-13T04:09:35.179Z,97764.23
2018-02-13T04:20:20.828Z,97758.49
2018-02-13T04:31:11.130Z,97736.77
2018-02-13T04:41:56.867Z,97739.71
2018-02-13T04:52:42.675Z,97734.83
2018-02-13T05:03:32.787Z,97732.78
2018-02-13T05:17:32.997Z,97728.35
2018-02-13T05:31:33.682Z,97716.13
2018-02-13T05:45:33.780Z,97715.25
2018-02-13T05:56:23.765Z,97708.69
2018-02-13T06:10:24.609Z,97709.56
2018-02-13T06:21:15.220Z,97695.19
2018-02-13T06:32:05.281Z,97691.97
2018-02-13T06:46:05.968Z,97699.39
2018-02-13T07:00:06.103Z,97699.73
2018-02-13T07:10:51.552Z,97699.66
2018-02-13T07:21:42.076Z,97703.04
2018-02-13T07:32:32.776Z,97694.52
2018-02-13T07:46:33.473Z,97683.86
2018-02-13T08:00:34.251Z,97683.93
2018-02-13T08:14:34.405Z,97678.94
2018-02-13T08:28:35.229Z,97675.13
2018-02-13T08:42:36.573Z,97677.32
2018-02-13T08:53:26.997Z,97678.75
2018-02-13T09:07:27.300Z,97678.75
2018-02-13T09:18:18.117Z,97684.66
2018-02-13T09:29:03.466Z,97682.71
2018-02-13T09:39:53.757Z,97679.96
2018-02-13T09:50:44.181Z,97672.27
2018-02-13T10:04:45.012Z,97666.80
2018-02-13T10:15:35.489Z,97650.35
2018-02-13T10:26:26.217Z,97635.83
2018-02-13T10:37:16.795Z,97627.41
2018-02-13T10:48:02.450Z,97628.78
2018-02-13T11:02:06.953Z,97613.23
2018-02-13T11:12:57.005Z,97592.53
2018-02-13T11:23:43.278Z,97596.83
2018-02-13T11:37:44.970Z,97570.59
2018-02-13T11:51:45.892Z,97575.88
2018-02-13T12:02:36.678Z,97545.81
2018-02-13T12:03:43.371Z,97539.06
2018-02-13T12:14:29.684Z,97546.27
2018-02-13T12:25:15.328Z,97543.57
2018-02-13T12:36:07.021Z,97493.00
2018-02-13T12:50:08.841Z,97497.56
2018-02-13T13:07:27.824Z,97467.17
2018-02-13T13:21:30.186Z,97461.41
2018-02-13T13:22:36.434Z,97426.84
2018-02-13T13:36:39.552Z,97433.80
2018-02-13T13:53:58.870Z,97438.27
2018-02-13T14:04:47.524Z,97412.08
2018-02-13T14:18:51.011Z,97410.28
2018-02-13T14:32:53.868Z,97402.05
2018-02-13T14:50:13.893Z,97380.98
2018-02-13T15:13:58.845Z,97369.00
2018-02-13T15:28:00.856Z,97369.14
2018-02-13T15:38:48.384Z,97379.70
2018-02-13T15:52:51.976Z,97378.89
2018-02-13T16:10:14.228Z,97359.73
2018-02-13T16:27:34.062Z,97354.84
2018-02-13T16:41:36.600Z,97373.25
2018-02-13T16:55:39.270Z,97372.88
2018-02-13T17:09:43.943Z,97365.17
2018-02-13T18:53:35.354Z,97391.06
2018-02-13T18:54:49.905Z,97392.75
2018-02-13T18:55:59.724Z,97390.66
2018-02-13T18:57:10.095Z,97396.60
2018-02-13T18:58:29.548Z,97393.38
2018-02-13T18:59:41.479Z,97399.16
2018-02-13T19:00:50.252Z,97399.84
2018-02-13T19:02:00.647Z,97393.86
2018-02-13T19:03:09.435Z,97395.05
2018-02-13T19:04:20.491Z,97391.39
2018-02-13T19:05:29.198Z,97391.31
2018-02-13T19:06:38.713Z,97395.39
2018-02-13T19:07:45.968Z,97400.52
2018-02-13T19:08:55.182Z,97407.47
2018-02-13T19:10:06.174Z,97400.03
2018-02-13T19:11:17.216Z,97402.44
2018-02-13T19:13:40.715Z,97404.84
2018-02-13T19:14:49.146Z,97399.73
2018-02-13T19:15:59.573Z,97404.70
2018-02-13T19:18:23.367Z,97402.36
2018-02-13T19:19:33.485Z,97401.34
2018-02-13T19:20:43.965Z,97400.53
2018-02-13T19:21:52.252Z,97401.53
2018-02-13T19:23:02.039Z,97398.17
2018-02-13T19:24:11.120Z,97399.93
2018-02-13T19:25:21.272Z,97404.09
2018-02-13T19:26:31.047Z,97406.26
2018-02-13T19:27:41.954Z,97404.59
2018-02-13T19:28:50.719Z,97407.31
2018-02-13T19:29:57.788Z,97400.09
2018-02-13T19:31:06.190Z,97400.45
2018-02-13T19:32:14.914Z,97405.90
2018-02-13T19:33:24.322Z,97408.87
2018-02-13T19:34:33.060Z,97409.02
2018-02-13T19:35:41.789Z,97402.56
2018-02-13T19:36:50.416Z,97410.60
2018-02-13T19:37:58.756Z,97411.28
2018-02-13T19:39:08.836Z,97411.82
2018-02-13T19:40:19.445Z,97411.55
2018-02-13T19:41:30.231Z,97409.11
2018-02-13T19:42:40.528Z,97410.91
2018-02-13T19:43:49.191Z,97409.31
2018-02-13T19:44:57.920Z,97409.55
2018-02-13T19:46:05.264Z,97410.03
2018-02-13T19:47:13.905Z,97406.05
2018-02-13T19:48:22.537Z,97408.98
2018-02-13T19:49:32.345Z,97409.79
2018-02-13T19:50:42.802Z,97415.45
2018-02-13T19:51:52.315Z,97412.91
2018-02-13T19:53:03.095Z,97414.19
2018-02-13T19:54:10.146Z,97420.18
2018-02-13T19:55:18.681Z,97422.55
2018-02-13T19:56:28.263Z,97413.83
2018-02-13T19:57:37.789Z,97419.92
2018-02-13T19:58:47.650Z,97420.70
2018-02-13T19:59:57.817Z,97421.97
2018-02-13T20:01:08.328Z,97420.81
2018-02-13T20:02:15.012Z,97424.41
2018-02-13T20:03:23.552Z,97420.11
2018-02-13T20:04:33.763Z,97421.02
2018-02-13T20:05:44.622Z,97422.31
2018-02-13T20:06:54.357Z,97423.05
2018-02-13T20:08:06.536Z,97422.44
2018-02-13T20:09:14.134Z,97426.16
2018-02-13T20:10:22.608Z,97423.67
2018-02-13T20:11:32.583Z,97420.36
2018-02-13T20:12:42.719Z,97417.52
2018-02-13T20:13:55.362Z,97420.04
2018-02-13T20:15:05.757Z,97419.14
2018-02-13T20:16:15.513Z,97415.51
2018-02-13T20:17:23.527Z,97425.06
2018-02-13T20:18:35.201Z,97424.78
2018-02-13T20:19:43.730Z,97426.12
2018-02-13T20:20:53.735Z,97429.82
2018-02-13T20:22:03.601Z,97426.84
2018-02-13T20:23:13.348Z,97432.97
2018-02-13T20:24:19.799Z,97431.77
2018-02-13T20:25:28.383Z,97428.06
2018-02-13T20:26:37.181Z,97434.00
2018-02-13T20:27:46.405Z,97430.23
2018-02-13T20:28:54.601Z,97436.80
2018-02-13T20:30:03.232Z,97436.82
2018-02-13T20:31:11.659Z,97436.01
2018-02-13T20:32:20.263Z,97439.34
2018-02-13T20:33:27.271Z,97440.76
2018-02-13T20:34:36.024Z,97438.23
2018-02-13T20:35:44.795Z,97433.28
2018-02-13T20:36:53.228Z,97433.31
2018-02-13T20:38:01.275Z,97432.47
2018-02-13T20:39:10.758Z,97445.64
2018-02-13T20:40:19.338Z,97443.73
2018-02-13T20:41:27.017Z,97441.68
2018-02-13T20:42:35.422Z,97449.53
2018-02-13T20:43:45.758Z,97444.99
2018-02-13T20:44:53.378Z,97444.99
2018-02-13T20:46:01.777Z,97449.95
2018-02-13T20:47:11.243Z,97440.92
2018-02-13T20:48:19.739Z,97441.80
2018-02-13T20:49:28.066Z,97441.00
2018-02-13T20:50:35.321Z,97444.74
2018-02-13T20:51:43.716Z,97439.77
2018-02-13T20:52:53.264Z,97455.37
2018-02-13T20:54:02.765Z,97444.39
2018-02-13T20:55:12.376Z,97448.44
2018-02-13T20:56:21.913Z,97450.58
2018-02-13T20:57:31.345Z,97446.09
2018-02-13T20:58:38.595Z,97444.89
2018-02-13T20:59:47.976Z,97449.33
2018-02-13T21:00:56.591Z,97450.20
2018-02-13T21:02:06.200Z,97450.67
2018-02-13T21:03:15.468Z,97451.14
2018-02-13T21:04:23.552Z,97446.92
2018-02-13T21:05:33.691Z,97449.42
2018-02-13T21:06:40.641Z,97447.84
2018-02-13T21:07:50.773Z,97450.65
2018-02-13T21:09:00.475Z,97449.07
2018-02-13T21:10:08.931Z,97454.74
2018-02-13T21:11:17.638Z,97452.35
2018-02-13T21:12:26.866Z,97451.95
2018-02-13T21:13:37.382Z,97453.16
2018-02-13T21:14:43.906Z,97455.21
2018-02-13T21:15:53.427Z,97451.52
2018-02-13T21:17:02.114Z,97447.38
2018-02-13T21:18:13.100Z,97451.95
2018-02-13T21:19:23.544Z,97451.95
2018-02-13T21:20:32.323Z,97455.25
2018-02-13T21:21:42.767Z,97452.43
2018-02-13T21:22:50.161Z,97452.66
2018-02-13T21:23:58.966Z,97455.17
2018-02-13T21:25:07.451Z,97454.89
2018-02-13T21:26:16.037Z,97444.21
2018-02-13T21:27:26.317Z,97450.32
2018-02-13T21:28:35.682Z,97458.67
2018-02-13T21:29:45.715Z,97452.94
2018-02-13T21:30:53.021Z,97452.94
2018-02-13T21:32:02.624Z,97446.42
2018-02-13T21:33:13.672Z,97449.25
2018-02-13T21:34:24.830Z,97449.95
2018-02-13T21:35:33.237Z,97448.30
2018-02-13T21:36:41.148Z,97448.77
2018-02-13T21:37:50.408Z,97451.27
2018-02-13T21:38:57.502Z,97448.86
2018-02-13T21:40:05.193Z,97450.00
2018-02-13T21:41:13.551Z,97446.81
2018-02-13T21:42:23.582Z,97451.42
2018-02-13T21:43:31.044Z,97447.73
2018-02-13T21:44:39.552Z,97453.10
2018-02-13T21:45:47.913Z,97449.38
2018-02-13T21:46:54.187Z,97443.19
2018-02-13T21:47:59.841Z,97441.95
2018-02-13T21:49:06.318Z,97446.48
2018-02-13T21:50:13.850Z,97441.46
2018-02-13T21:51:19.861Z,97449.84
2018-02-13T21:52:27.136Z,97445.87
2018-02-13T21:53:33.328Z,97443.52
2018-02-13T21:54:39.039Z,97446.83
2018-02-13T21:55:47.374Z,97448.58
2018-02-13T21:56:53.641Z,97455.57
2018-02-13T21:58:00.951Z,97447.67
2018-02-13T21:59:07.708Z,97449.80
2018-02-13T22:00:14.122Z,97446.17
2018-02-13T22:01:20.631Z,97448.99
2018-02-13T22:02:26.663Z,97451.50
2018-02-13T22:03:32.467Z,97452.00
2018-02-13T22:04:37.151Z,97453.61
2018-02-13T22:05:42.871Z,97456.52
2018-02-13T22:06:47.732Z,97449.48
2018-02-13T22:07:52.867Z,97453.23
2018-02-13T22:08:57.967Z,97452.00
2018-02-13T22:10:03.592Z,97454.95
2018-02-13T22:11:08.402Z,97455.77
2018-02-13T22:12:14.131Z,97454.14
2018-02-13T22:13:19.002Z,97453.27
2018-02-13T22:14:25.289Z,97457.80
2018-02-13T22:15:30.161Z,97460.30
2018-02-13T22:16:36.554Z,97462.41
2018-02-13T22:17:42.859Z,97463.72
2018-02-13T22:18:50.249Z,97466.17
2018-02-13T22:19:57.714Z,97460.79
2018-02-13T22:21:05.498Z,97467.48
2018-02-13T22:22:10.468Z,97464.46
2018-02-13T22:23:15.303Z,97461.62
2018-02-13T22:24:20.897Z,97462.91
2018-02-13T22:25:26.717Z,97463.37
2018-02-13T22:26:31.666Z,97464.16
2018-02-13T22:27:36.709Z,97462.55
2018-02-13T22:28:41.983Z,97465.12
2018-02-13T22:29:48.421Z,97467.11
2018-02-13T22:30:53.277Z,97464.68
2018-02-13T22:31:58.462Z,97465.91
2018-02-13T22:33:05.239Z,97466.86
2018-02-13T22:34:12.625Z,97466.80
2018-02-13T22:35:17.743Z,97463.49
2018-02-13T22:36:25.648Z,97471.75
2018-02-13T22:37:32.823Z,97464.33
2018-02-13T22:38:38.492Z,97469.27
2018-02-13T22:39:44.184Z,97465.55
2018-02-13T22:40:50.715Z,97472.96
2018-02-13T22:41:55.652Z,97471.70
2018-02-13T22:43:02.018Z,97474.15
2018-02-13T22:44:09.011Z,97475.78
2018-02-13T22:45:14.369Z,97477.05
2018-02-13T22:46:19.561Z,97475.05
2018-02-13T22:47:24.879Z,97474.27
2018-02-13T22:48:30.055Z,97479.99
2018-02-13T22:49:35.237Z,97478.78
2018-02-13T22:50:41.139Z,97475.53
2018-02-13T22:51:46.160Z,97486.19
2018-02-13T22:52:51.321Z,97480.86
2018-02-13T22:53:56.688Z,97488.63
2018-02-13T22:55:01.855Z,97486.14
2018-02-13T22:56:07.321Z,97492.36
2018-02-13T22:57:12.163Z,97489.12
2018-02-13T22:58:17.170Z,97489.55
2018-02-13T22:59:21.978Z,97485.45
2018-02-13T23:00:26.761Z,97490.38
2018-02-13T23:01:31.585Z,97485.50
2018-02-13T23:02:36.548Z,97490.76
2018-02-13T23:03:41.438Z,97483.48
2018-02-13T23:04:46.133Z,97492.13
2018-02-13T23:05:50.794Z,97489.64
2018-02-13T23:06:55.447Z,97491.70
2018-02-13T23:08:00.067Z,97492.53
2018-02-13T23:09:05.172Z,97493.77
2018-02-13T23:10:09.828Z,97490.84
2018-02-13T23:11:14.430Z,97490.12
2018-02-13T23:12:19.117Z,97491.09
2018-02-13T23:13:23.842Z,97487.02
2018-02-13T23:14:28.642Z,97489.61
2018-02-13T23:15:33.781Z,97492.92
2018-02-13T23:16:38.430Z,97489.99
2018-02-13T23:17:43.630Z,97491.58
2018-02-13T23:18:48.691Z,97500.61
2018-02-13T23:19:55.431Z,97498.13
2018-02-13T23:21:00.199Z,97500.27
2018-02-13T23:22:05.324Z,97501.47
2018-02-13T23:23:10.102Z,97498.98
2018-02-13T23:24:14.854Z,97500.59
2018-02-13T23:25:19.613Z,97498.14
2018-02-13T23:26:24.385Z,97504.62
2018-02-13T23:27:29.142Z,97503.50
2018-02-13T23:28:34.206Z,97508.34
2018-02-13T23:29:38.969Z,97503.72
2018-02-13T23:30:43.744Z,97507.02
2018-02-13T23:31:48.529Z,97512.45
2018-02-13T23:32:53.266Z,97507.56
2018-02-13T23:33:57.877Z,97501.86
2018-02-13T23:35:02.772Z,97503.50
2018-02-13T23:36:07.784Z,97503.19
2018-02-13T23:37:12.454Z,97508.87
2018-02-13T23:38:17.338Z,97505.13
2018-02-13T23:39:21.933Z,97508.50
2018-02-13T23:40:27.539Z,97506.86
2018-02-13T23:41:32.495Z,97508.42
2018-02-13T23:42:37.129Z,97513.44
2018-02-13T23:43:42.396Z,97508.63
2018-02-13T23:44:47.084Z,97508.19
2018-02-13T23:45:51.857Z,97507.40
2018-02-13T23:46:56.678Z,97508.28
2018-02-13T23:48:01.763Z,97508.72
2018-02-13T23:49:06.514Z,97513.97
2018-02-13T23:50:11.308Z,97512.30
2018-02-13T23:51:15.985Z,97513.98
2018-02-13T23:52:20.636Z,97512.43
2018-02-13T23:53:25.328Z,97515.31
2018-02-13T23:54:30.327Z,97514.91
2018-02-13T23:55:35.104Z,97519.75
2018-02-13T23:56:39.890Z,97516.15
2018-02-13T23:57:44.725Z,97521.09
2018-02-13T23:58:49.749Z,97522.35
2018-02-13T23:59:54.480Z,97517.80
